Time;durP1;ratioP1;P1;durP2;ratioP2;P2;SDS_P1;SDS_P2;PMS_P1;PMS_P2;Temp;Humidity;BMP_temperature;BMP_pressure;BME280_temperature;BME280_humidity;BME280_pressure;Samples;Min_cycle;Max_cycle;Signal;HPM_P1;HPM_P2
2022/01/21 00:01:07;;;;;;;4.07;3.87;;;;;;;-0.66;81.31;92108.84;5038438;28;20608;-72
2022/01/21 00:03:35;;;;;;;4.40;4.30;;;;;;;-0.58;81.12;92126.97;5038877;28;20489;-72
2022/01/21 00:06:06;;;;;;;4.63;4.40;;;;;;;-0.58;81.42;92144.34;5039005;28;20209;-72
2022/01/21 00:08:33;;;;;;;4.03;3.93;;;;;;;-0.71;82.13;92125.44;5038678;28;20597;-72
2022/01/21 00:11:00;;;;;;;7.90;4.10;;;;;;;-0.68;82.49;92130.38;5038628;28;20560;-72
2022/01/21 00:13:34;;;;;;;3.50;3.30;;;;;;;-0.65;82.19;92127.88;5038469;28;20566;-72
2022/01/21 00:16:02;;;;;;;6.03;5.50;;;;;;;-0.58;81.94;92126.97;5038474;28;20671;-72
2022/01/21 00:18:31;;;;;;;5.03;4.33;;;;;;;-0.45;82.03;92126.00;5038252;28;20197;-73
2022/01/21 00:31:57;;;;;;;5.53;4.07;;;;;;;-0.25;80.00;92108.44;5038373;28;20608;-72
2022/01/21 00:34:26;;;;;;;3.77;3.47;;;;;;;-0.23;79.31;92119.19;5037842;28;20311;-72
2022/01/21 00:36:53;;;;;;;2.13;2.03;;;;;;;-0.23;78.78;92114.22;5038072;28;20550;-72
2022/01/21 00:39:24;;;;;;;6.80;3.63;;;;;;;-0.22;79.62;92105.91;5037450;28;20536;-72
2022/01/21 00:41:59;;;;;;;2.57;2.47;;;;;;;-0.09;79.27;92090.88;5038230;28;20633;-72
2022/01/21 00:44:27;;;;;;;3.53;3.33;;;;;;;0.02;78.77;92092.41;5037937;28;20509;-72
2022/01/21 00:46:54;;;;;;;4.40;3.53;;;;;;;0.09;78.57;92101.44;5037457;28;20631;-72
2022/01/21 00:49:22;;;;;;;3.27;3.17;;;;;;;0.05;78.43;92099.84;5038391;28;20681;-72
2022/01/21 00:51:51;;;;;;;11.20;6.43;;;;;;;-0.05;79.37;92109.84;5037975;28;20573;-72
2022/01/21 00:54:18;;;;;;;10.30;8.07;;;;;;;-0.11;79.43;92096.69;5038386;28;20677;-72
2022/01/21 00:56:45;;;;;;;5.63;4.20;;;;;;;-0.19;80.42;92110.88;5037064;28;20524;-72
2022/01/21 00:59:13;;;;;;;5.17;4.23;;;;;;;-0.20;79.98;92091.84;5037834;28;20597;-72
2022/01/21 01:01:40;;;;;;;4.37;4.17;;;;;;;-0.33;81.27;92102.72;5037404;28;20550;-72
2022/01/21 01:04:07;;;;;;;6.10;5.70;;;;;;;-0.28;81.14;92096.09;5037927;28;20303;-72
2022/01/21 01:06:34;;;;;;;4.03;3.83;;;;;;;-0.23;80.66;92094.38;5038687;28;20538;-72
2022/01/21 01:09:04;;;;;;;4.80;4.57;;;;;;;-0.27;81.01;92097.69;5037904;28;20643;-72
2022/01/21 01:11:45;;;;;;;5.90;5.50;;;;;;;-0.26;81.51;92087.78;5037006;28;20488;-72
2022/01/21 01:19:57;;;;;;;5.67;4.83;;;;;;;-0.40;83.01;92052.38;4980808;28;20675;-72
2022/01/21 01:22:33;;;;;;;15.77;5.63;;;;;;;-0.26;82.71;92062.13;5035736;28;20469;-73
2022/01/21 01:27:46;;;;;;;4.40;4.03;;;;;;;-0.09;82.16;92083.44;5036823;28;20629;-72
2022/01/21 01:30:15;;;;;;;4.37;4.17;;;;;;;-0.01;81.67;92076.72;5036829;28;20646;-72
2022/01/21 01:32:44;;;;;;;4.23;4.00;;;;;;;0.02;81.04;92070.06;5036349;28;20664;-72
2022/01/21 01:35:13;;;;;;;6.07;4.63;;;;;;;-0.09;81.41;92073.50;5036343;28;20559;-72
2022/01/21 01:40:26;;;;;;;5.20;4.80;;;;;;;-0.26;83.76;92065.44;5035133;28;20202;-72
2022/01/21 01:49:25;;;;;;;4.77;3.77;;;;;;;-0.13;83.61;92069.44;5025030;28;20198;-72
2022/01/21 01:51:38;;;;;;;1.10;1.10;;;;;;;0.05;84.47;92067.56;5036228;28;20666;-72
2022/01/21 01:54:10;;;;;;;1.50;1.00;;;;;;;0.16;84.55;92070.72;5036694;28;20651;-72
2022/01/21 01:56:45;;;;;;;1.20;1.20;;;;;;;0.20;83.99;92065.69;5036968;28;20582;-72
2022/01/21 01:59:12;;;;;;;1.07;1.07;;;;;;;0.17;83.40;92048.34;5036400;28;20593;-72
2022/01/21 02:01:40;;;;;;;1.27;1.27;;;;;;;0.25;83.38;92048.25;5036246;28;20532;-72
2022/01/21 02:04:07;;;;;;;0.73;0.73;;;;;;;0.28;84.18;92060.63;5037049;28;20591;-72
2022/01/21 02:06:35;;;;;;;1.07;1.07;;;;;;;0.27;83.86;92052.38;5036315;28;20670;-72
2022/01/21 02:09:02;;;;;;;0.70;0.70;;;;;;;0.27;84.22;92057.34;5036114;28;20273;-72
2022/01/21 02:11:29;;;;;;;0.73;0.73;;;;;;;0.33;84.21;92072.16;5035842;28;20502;-73
2022/01/21 02:14:00;;;;;;;0.83;0.83;;;;;;;0.40;83.62;92068.72;5036204;28;20650;-72
2022/01/21 02:16:41;;;;;;;0.93;0.93;;;;;;;0.35;83.69;92054.72;5035875;28;20225;-73
2022/01/21 02:21:54;;;;;;;1.83;1.73;;;;;;;0.33;83.52;92048.97;5012504;28;20573;-73
2022/01/21 02:24:30;;;;;;;1.90;1.90;;;;;;;0.28;83.89;92041.56;5035451;28;20474;-72
2022/01/21 02:26:57;;;;;;;1.40;1.30;;;;;;;0.32;85.25;92044.84;5036276;28;20576;-72
2022/01/21 02:29:30;;;;;;;1.20;1.20;;;;;;;0.35;85.58;92035.66;5031481;28;20207;-72
2022/01/21 02:31:59;;;;;;;1.00;1.00;;;;;;;0.49;83.91;92039.63;5037960;28;20525;-72
2022/01/21 02:34:28;;;;;;;1.40;1.40;;;;;;;0.40;83.75;92028.97;5035637;28;20610;-72
2022/01/21 02:36:56;;;;;;;1.17;1.17;;;;;;;0.59;83.40;92041.13;5035642;28;20538;-73
2022/01/21 02:39:24;;;;;;;1.60;1.50;;;;;;;0.62;82.67;92046.88;5035863;28;20575;-72
2022/01/21 02:41:51;;;;;;;1.53;1.17;;;;;;;0.57;82.49;92041.16;5035024;28;20587;-72
2022/01/21 02:44:18;;;;;;;3.70;1.70;;;;;;;0.54;82.23;92043.69;5033260;28;20664;-72
2022/01/21 02:46:54;;;;;;;1.90;1.90;;;;;;;0.58;82.10;92046.94;5036124;28;20612;-73
2022/01/21 02:49:21;;;;;;;1.53;1.53;;;;;;;0.53;82.33;92038.72;5035585;28;20476;-72
2022/01/21 02:51:48;;;;;;;1.13;1.13;;;;;;;0.53;82.36;92029.63;5035314;28;20262;-73
2022/01/21 02:54:17;;;;;;;1.90;1.47;;;;;;;0.50;82.38;92024.72;5035660;28;20538;-73
2022/01/21 02:56:44;;;;;;;1.30;1.30;;;;;;;0.56;82.55;92031.25;5036544;28;20554;-73
2022/01/21 02:59:12;;;;;;;1.47;1.47;;;;;;;0.61;81.98;92037.78;5036324;28;20547;-73
2022/01/21 03:01:42;;;;;;;1.37;1.20;;;;;;;0.62;80.98;92039.41;5035384;28;20567;-73
2022/01/21 03:04:14;;;;;;;1.27;1.27;;;;;;;0.67;81.39;92042.66;5036002;28;20534;-73
2022/01/21 03:06:42;;;;;;;1.57;1.47;;;;;;;0.71;81.13;92038.47;5035660;28;20630;-72
2022/01/21 03:09:09;;;;;;;1.10;1.10;;;;;;;0.66;81.42;92037.72;5035714;28;20574;-72
2022/01/21 03:11:38;;;;;;;2.70;2.10;;;;;;;0.59;81.98;92026.22;5035646;28;20585;-72
2022/01/21 03:14:05;;;;;;;1.67;1.67;;;;;;;0.60;81.90;92027.88;5035238;28;20539;-72
2022/01/21 03:16:32;;;;;;;1.03;1.03;;;;;;;0.59;81.77;92029.53;5035834;28;20591;-73
2022/01/21 03:19:00;;;;;;;0.93;0.93;;;;;;;0.59;81.92;92033.69;5034875;28;20523;-73
2022/01/21 03:21:28;;;;;;;0.93;0.93;;;;;;;0.64;81.62;92026.97;5035350;28;20292;-73
2022/01/21 03:23:56;;;;;;;1.67;1.67;;;;;;;0.67;81.25;92021.97;5036464;28;20484;-73
2022/01/21 03:26:26;;;;;;;5.53;5.03;;;;;;;0.74;80.45;92016.03;5035502;28;20623;-73
2022/01/21 03:28:56;;;;;;;2.63;2.53;;;;;;;0.78;80.16;92018.47;5035355;28;20668;-72
2022/01/21 03:31:24;;;;;;;1.50;1.50;;;;;;;0.79;79.89;92022.56;5037343;28;20525;-73
2022/01/21 03:33:51;;;;;;;3.17;2.40;;;;;;;0.82;79.54;92027.50;5038933;28;20553;-73
2022/01/21 03:36:19;;;;;;;0.97;0.97;;;;;;;0.86;79.98;92017.50;5039559;28;20610;-73
2022/01/21 03:38:46;;;;;;;3.50;2.30;;;;;;;0.93;79.29;92014.06;5038838;28;20630;-73
2022/01/21 03:41:14;;;;;;;1.90;1.80;;;;;;;0.90;79.11;92019.13;5039429;28;20530;-72
2022/01/21 03:43:41;;;;;;;1.93;1.83;;;;;;;0.93;79.19;92016.56;5038685;28;20231;-72
2022/01/21 03:46:09;;;;;;;1.80;1.80;;;;;;;1.01;78.66;92013.13;5039955;28;20550;-72
2022/01/21 03:48:37;;;;;;;1.43;1.43;;;;;;;0.96;79.09;92009.84;5038548;28;20313;-73
2022/01/21 03:51:05;;;;;;;0.70;0.70;;;;;;;0.94;79.60;92009.09;5038801;28;20221;-72
2022/01/21 03:53:32;;;;;;;1.37;1.37;;;;;;;0.90;80.33;92004.19;5039276;28;20760;-73
2022/01/21 03:55:59;;;;;;;0.93;0.93;;;;;;;0.90;80.46;91994.25;5039320;28;20635;-73
2022/01/21 03:58:26;;;;;;;0.73;0.73;;;;;;;0.89;80.75;91997.56;5038517;28;20656;-73
2022/01/21 04:00:56;;;;;;;0.70;0.70;;;;;;;0.87;81.25;91994.28;5039095;28;20529;-73
2022/01/21 04:03:26;;;;;;;1.33;1.33;;;;;;;0.89;81.30;91992.59;5038973;28;20562;-73
2022/01/21 04:05:54;;;;;;;0.93;0.93;;;;;;;0.94;80.99;91990.84;5038748;28;20465;-73
2022/01/21 04:08:21;;;;;;;1.30;1.30;;;;;;;0.99;80.45;91986.63;5038762;28;20717;-73
2022/01/21 04:10:49;;;;;;;2.30;1.87;;;;;;;1.07;80.17;91980.66;5038462;28;20597;-73
2022/01/21 04:13:19;;;;;;;1.10;1.10;;;;;;;1.12;79.40;91980.59;5038427;28;20690;-73
2022/01/21 04:15:48;;;;;;;1.20;1.20;;;;;;;1.11;79.07;91969.81;5038533;28;20604;-73
2022/01/21 04:18:16;;;;;;;1.57;1.57;;;;;;;1.28;78.57;91991.91;5038772;28;20581;-73
2022/01/21 04:20:47;;;;;;;2.57;2.47;;;;;;;1.40;77.75;91989.19;5038233;28;20334;-73
2022/01/21 04:23:14;;;;;;;1.40;1.40;;;;;;;1.38;77.85;91990.88;5038150;28;20203;-73
2022/01/21 04:25:42;;;;;;;3.43;2.80;;;;;;;1.43;77.68;91986.63;5038522;28;20567;-73
2022/01/21 04:28:09;;;;;;;4.57;4.17;;;;;;;1.44;77.73;91988.28;5038047;28;20578;-73
2022/01/21 04:30:37;;;;;;;4.73;4.23;;;;;;;1.41;78.01;91990.03;5038585;28;20542;-73
2022/01/21 04:33:05;;;;;;;9.87;5.03;;;;;;;1.45;77.79;91984.13;5038989;28;20229;-73
2022/01/21 04:35:33;;;;;;;11.10;4.97;;;;;;;1.43;77.88;91979.16;5037744;28;20604;-73
2022/01/21 04:38:05;;;;;;;4.43;4.13;;;;;;;1.46;77.78;91981.63;5038131;28;20569;-73
2022/01/21 04:40:36;;;;;;;2.77;2.53;;;;;;;1.56;77.30;91988.06;5037769;28;20489;-73
2022/01/21 04:48:35;;;;;;;4.13;3.37;;;;;;;1.61;77.44;91986.28;5037982;28;20500;-73
2022/01/21 04:51:13;;;;;;;4.00;3.27;;;;;;;1.71;76.98;91991.06;5037312;28;20578;-73
2022/01/21 04:53:42;;;;;;;4.57;3.33;;;;;;;1.64;76.91;91990.38;5037693;28;20610;-73
2022/01/21 04:56:10;;;;;;;3.77;3.47;;;;;;;1.55;78.88;91996.38;5036952;28;20672;-73
2022/01/21 04:58:37;;;;;;;10.33;8.43;;;;;;;1.54;78.48;91994.72;5037688;28;20620;-72
2022/01/21 05:01:06;;;;;;;42.93;21.20;;;;;;;1.58;78.20;92008.72;5037833;28;20588;-73
2022/01/21 05:03:34;;;;;;;13.73;9.33;;;;;;;1.52;78.60;92008.84;5037715;28;20207;-73
2022/01/21 05:06:02;;;;;;;8.87;7.97;;;;;;;1.58;78.80;92021.19;5037424;28;20494;-73
2022/01/21 05:08:33;;;;;;;9.93;8.43;;;;;;;1.54;79.06;92023.75;5038455;28;20458;-73
2022/01/21 05:11:03;;;;;;;11.27;10.17;;;;;;;1.62;79.05;92027.75;5038134;28;20566;-73
2022/01/21 05:13:37;;;;;;;21.07;12.53;;;;;;;1.64;78.75;92028.53;5038171;28;20700;-73
2022/01/21 05:16:09;;;;;;;17.57;9.63;;;;;;;1.49;79.32;92015.56;5037874;28;20242;-73
2022/01/21 05:18:36;;;;;;;28.30;13.37;;;;;;;1.49;79.73;92036.28;5037441;28;20697;-73
2022/01/21 05:21:03;;;;;;;16.97;10.53;;;;;;;1.46;80.09;92040.53;5038044;28;20217;-73
2022/01/21 05:23:31;;;;;;;19.13;12.87;;;;;;;1.46;80.16;92048.81;5036747;28;20205;-73
2022/01/21 05:25:58;;;;;;;14.07;10.30;;;;;;;1.38;81.11;92052.25;5037282;28;20577;-72
2022/01/21 05:28:27;;;;;;;19.47;11.47;;;;;;;1.46;80.97;92051.28;5037254;28;20477;-73
2022/01/21 05:30:54;;;;;;;17.13;11.77;;;;;;;1.51;81.22;92061.97;5034936;28;20617;-73
2022/01/21 05:33:21;;;;;;;15.90;10.20;;;;;;;1.42;80.78;92069.59;5033730;28;20229;-73
2022/01/21 05:35:48;;;;;;;22.40;13.00;;;;;;;1.34;81.43;92086.34;5029421;28;20559;-72
2022/01/21 05:38:16;;;;;;;22.13;11.00;;;;;;;1.29;82.34;92088.09;5030780;28;20197;-72
2022/01/21 05:40:45;;;;;;;18.90;14.00;;;;;;;1.24;83.54;92087.31;5031392;28;20546;-72
2022/01/21 05:43:13;;;;;;;47.83;25.77;;;;;;;1.22;85.22;92103.94;5033460;28;20652;-72
2022/01/21 05:48:26;;;;;;;41.80;18.20;;;;;;;1.28;87.96;92113.81;5031334;28;20584;-72
2022/01/21 05:50:54;;;;;;;34.87;19.13;;;;;;;1.25;89.58;92116.31;5031594;28;20667;-71
2022/01/21 05:53:22;;;;;;;48.67;23.27;;;;;;;1.10;91.39;92121.56;5029298;28;20607;-71
2022/01/21 05:55:50;;;;;;;41.43;21.57;;;;;;;1.08;93.94;92123.22;5032423;28;20278;-71
2022/01/21 05:58:20;;;;;;;38.93;21.43;;;;;;;1.07;94.18;92132.34;5034267;28;20193;-71
2022/01/21 06:00:50;;;;;;;34.73;18.80;;;;;;;0.96;96.50;92138.38;5033610;28;20262;-72
2022/01/21 06:03:20;;;;;;;43.67;25.30;;;;;;;0.77;99.74;92125.38;5035569;28;20589;-73
2022/01/21 06:05:47;;;;;;;37.23;22.20;;;;;;;0.76;100.00;92134.50;5033605;28;20420;-73
2022/01/21 06:08:14;;;;;;;44.37;18.73;;;;;;;0.90;100.00;92139.28;5031402;28;20574;-73
2022/01/21 06:10:42;;;;;;;26.53;19.03;;;;;;;0.90;100.00;92145.91;5034669;28;20593;-72
2022/01/21 06:13:09;;;;;;;30.43;18.00;;;;;;;0.93;100.00;92158.28;5032760;28;20225;-71
2022/01/21 06:15:38;;;;;;;21.23;13.67;;;;;;;0.88;100.00;92160.03;5032883;28;20637;-71
2022/01/21 06:18:09;;;;;;;9.07;8.10;;;;;;;0.94;100.00;92164.91;5032040;28;20210;-71
2022/01/21 06:20:37;;;;;;;14.83;11.20;;;;;;;0.79;100.00;92159.28;5029479;28;20560;-71
2022/01/21 06:23:04;;;;;;;4.53;4.33;;;;;;;0.81;100.00;92175.00;5032701;28;20571;-72
2022/01/21 06:25:32;;;;;;;5.77;5.53;;;;;;;0.78;100.00;92171.75;5032376;28;20567;-71
2022/01/21 06:28:00;;;;;;;7.17;4.60;;;;;;;0.86;100.00;92169.97;5032206;28;20582;-71
2022/01/21 06:30:27;;;;;;;5.33;5.03;;;;;;;0.83;100.00;92175.00;5031500;28;20261;-71
2022/01/21 06:32:54;;;;;;;5.23;4.87;;;;;;;0.80;100.00;92158.44;5035504;28;20517;-73
2022/01/21 06:35:23;;;;;;;6.97;5.07;;;;;;;0.86;100.00;92176.59;5032661;28;20523;-73
2022/01/21 06:37:50;;;;;;;3.77;3.50;;;;;;;0.84;100.00;92177.44;5030258;28;20601;-72
2022/01/21 06:40:20;;;;;;;2.90;2.80;;;;;;;0.95;100.00;92186.44;5031190;28;20275;-73
2022/01/21 06:42:47;;;;;;;3.10;3.00;;;;;;;0.97;100.00;92175.63;5032912;28;20206;-71
2022/01/21 06:45:15;;;;;;;3.87;3.67;;;;;;;1.06;100.00;92192.09;5031924;28;20610;-73
2022/01/21 06:47:42;;;;;;;2.77;2.67;;;;;;;0.98;100.00;92181.41;5031077;28;20267;-72
2022/01/21 06:50:10;;;;;;;3.27;3.17;;;;;;;1.07;100.00;92183.78;5031937;28;20509;-72
2022/01/21 06:52:42;;;;;;;3.63;3.43;;;;;;;1.12;100.00;92185.38;5029027;28;20501;-74
2022/01/21 06:55:09;;;;;;;4.00;3.83;;;;;;;1.08;100.00;92198.66;5029837;28;20560;-73
2022/01/21 06:57:39;;;;;;;4.57;3.67;;;;;;;1.23;100.00;92212.56;5030643;28;20502;-73
2022/01/21 07:00:08;;;;;;;2.60;2.43;;;;;;;1.18;100.00;92214.31;5029085;28;20238;-73
2022/01/21 07:02:36;;;;;;;2.17;2.07;;;;;;;1.14;100.00;92215.16;5032459;28;20601;-72
2022/01/21 07:05:04;;;;;;;3.60;3.40;;;;;;;1.19;100.00;92228.34;5034666;28;20474;-73
2022/01/21 07:07:32;;;;;;;4.73;3.27;;;;;;;1.14;100.00;92237.56;5037134;28;20555;-72
2022/01/21 07:10:01;;;;;;;5.93;5.60;;;;;;;1.17;100.00;92238.34;5032383;28;20699;-72
2022/01/21 07:12:28;;;;;;;15.67;13.60;;;;;;;1.04;100.00;92213.66;5034365;28;20541;-73
2022/01/21 07:14:55;;;;;;;4.37;4.23;;;;;;;1.23;100.00;92240.75;5037236;28;20605;-73
2022/01/21 07:17:23;;;;;;;3.00;2.90;;;;;;;1.21;100.00;92244.91;5035989;28;20614;-73
2022/01/21 07:19:50;;;;;;;1.77;1.77;;;;;;;1.15;100.00;92245.00;5034180;28;20587;-72
2022/01/21 07:22:17;;;;;;;1.23;1.23;;;;;;;1.09;100.00;92244.25;5031444;28;20524;-74
2022/01/21 07:24:45;;;;;;;4.57;4.07;;;;;;;1.04;100.00;92241.84;5035980;28;20231;-74
2022/01/21 07:27:13;;;;;;;3.17;3.07;;;;;;;1.06;100.00;92250.13;5035559;28;20202;-76
2022/01/21 07:29:41;;;;;;;6.97;5.17;;;;;;;0.86;100.00;92233.78;5033202;28;20206;-74
2022/01/21 07:32:09;;;;;;;27.03;15.30;;;;;;;1.00;100.00;92260.16;5034715;28;20546;-73
2022/01/21 07:34:36;;;;;;;5.23;4.97;;;;;;;0.94;100.00;92260.22;5037521;28;20579;-72
2022/01/21 07:37:04;;;;;;;7.20;5.67;;;;;;;0.94;100.00;92267.69;5036517;28;20579;-73
2022/01/21 07:39:31;;;;;;;5.53;5.13;;;;;;;1.04;100.00;92273.34;5036541;28;20616;-73
2022/01/21 07:41:59;;;;;;;8.70;8.10;;;;;;;1.10;100.00;92269.13;5035587;28;20583;-72
2022/01/21 07:44:27;;;;;;;4.77;4.60;;;;;;;1.06;100.00;92267.53;5033204;28;20234;-72
2022/01/21 07:46:54;;;;;;;4.53;4.40;;;;;;;1.18;100.00;92272.31;5034089;28;20524;-72
2022/01/21 07:49:22;;;;;;;2.13;1.40;;;;;;;0.91;100.00;92271.84;5035484;28;20637;-71
2022/01/21 07:51:49;;;;;;;4.10;3.80;;;;;;;0.87;100.00;92292.63;5035324;28;20548;-71
2022/01/21 07:54:17;;;;;;;2.73;2.60;;;;;;;0.78;100.00;92294.41;5032437;28;20681;-72
2022/01/21 07:56:44;;;;;;;2.57;1.87;;;;;;;0.89;100.00;92309.19;5033712;28;20454;-71
2022/01/21 07:59:14;;;;;;;4.40;4.20;;;;;;;0.65;100.00;92268.03;5035379;28;20192;-73
2022/01/21 08:01:43;;;;;;;3.00;2.80;;;;;;;0.94;100.00;92314.09;5035708;28;20491;-71
2022/01/21 08:04:11;;;;;;;3.83;3.57;;;;;;;0.91;100.00;92311.63;5036160;28;20598;-71
2022/01/21 08:06:39;;;;;;;17.57;14.13;;;;;;;0.93;100.00;92327.38;5035213;28;20490;-72
2022/01/21 08:09:07;;;;;;;22.97;17.47;;;;;;;0.76;100.00;92310.16;5032885;28;20562;-71
2022/01/21 08:11:35;;;;;;;5.10;4.70;;;;;;;0.83;100.00;92334.94;5033083;28;20574;-72
2022/01/21 08:14:02;;;;;;;3.93;3.23;;;;;;;0.84;100.00;92335.75;5034142;28;20635;-70
2022/01/21 08:16:29;;;;;;;5.77;5.47;;;;;;;0.81;100.00;92325.84;5034543;28;20559;-71
2022/01/21 08:18:59;;;;;;;11.80;8.17;;;;;;;0.88;100.00;92337.38;5032711;28;20276;-71
2022/01/21 08:21:26;;;;;;;5.67;5.40;;;;;;;0.89;100.00;92343.16;5031644;28;20593;-71
2022/01/21 08:23:55;;;;;;;11.83;9.47;;;;;;;0.82;100.00;92348.22;5034030;28;20590;-71
2022/01/21 08:26:27;;;;;;;16.30;12.43;;;;;;;0.82;100.00;92349.88;5033326;28;20485;-71
2022/01/21 08:28:56;;;;;;;10.10;9.37;;;;;;;0.88;100.00;92361.41;5029527;28;20651;-72
2022/01/21 08:31:24;;;;;;;10.23;9.63;;;;;;;0.99;100.00;92369.56;5033748;28;20302;-72
2022/01/21 08:33:51;;;;;;;5.20;4.80;;;;;;;1.04;100.00;92375.31;5033811;28;20544;-71
2022/01/21 08:36:20;;;;;;;2.90;2.73;;;;;;;1.01;100.00;92380.34;5035671;28;20639;-72
2022/01/21 08:38:48;;;;;;;3.53;3.23;;;;;;;0.95;100.00;92388.69;5032322;28;20609;-71
2022/01/21 08:41:15;;;;;;;4.13;4.03;;;;;;;0.89;100.00;92380.47;5033808;28;20200;-71
2022/01/21 08:43:42;;;;;;;2.70;2.70;;;;;;;0.88;99.58;92399.53;5030875;28;20502;-71
2022/01/21 08:46:10;;;;;;;3.70;3.50;;;;;;;0.75;100.00;92388.06;5034068;28;20526;-71
2022/01/21 08:48:38;;;;;;;5.63;5.23;;;;;;;0.80;100.00;92391.31;5033439;28;20559;-71
2022/01/21 08:51:09;;;;;;;4.07;3.97;;;;;;;0.89;100.00;92386.25;5032924;28;20483;-71
2022/01/21 08:53:41;;;;;;;3.43;3.33;;;;;;;0.87;100.00;92382.13;5033410;28;20618;-71
2022/01/21 08:56:12;;;;;;;1.53;1.53;;;;;;;0.98;100.00;92400.25;5029961;28;20517;-71
2022/01/21 08:58:40;;;;;;;4.87;4.63;;;;;;;1.05;100.00;92387.75;5028167;28;20573;-71
2022/01/21 09:01:11;;;;;;;4.57;3.17;;;;;;;0.96;100.00;92367.94;5032980;28;20587;-71
2022/01/21 09:03:39;;;;;;;2.63;2.43;;;;;;;1.13;100.00;92393.44;5032898;28;20500;-71
2022/01/21 09:06:07;;;;;;;2.57;2.47;;;;;;;0.97;100.00;92374.56;5032689;28;20791;-71
2022/01/21 09:08:34;;;;;;;4.20;3.90;;;;;;;1.11;99.61;92391.81;5031305;28;20682;-73
2022/01/21 09:11:05;;;;;;;7.60;6.87;;;;;;;1.04;99.72;92390.25;5032896;28;20584;-71
2022/01/21 09:13:39;;;;;;;2.43;2.33;;;;;;;0.95;99.53;92385.38;5035208;28;20501;-72
2022/01/21 09:16:07;;;;;;;2.37;2.27;;;;;;;1.16;98.84;92400.06;5033728;28;20477;-72
2022/01/21 09:18:45;;;;;;;2.80;2.67;;;;;;;1.21;98.71;92398.34;5031608;28;20558;-71
2022/01/21 09:21:13;;;;;;;3.40;1.70;;;;;;;1.11;98.91;92381.88;5026643;28;20570;-72
2022/01/21 09:23:41;;;;;;;6.13;5.70;;;;;;;1.06;98.85;92364.53;5027026;28;20587;-72
2022/01/21 09:26:10;;;;;;;2.97;2.87;;;;;;;1.38;97.98;92395.66;5031073;28;20521;-72
2022/01/21 09:28:38;;;;;;;10.63;9.70;;;;;;;1.37;97.15;92389.84;5026437;28;20557;-72
2022/01/21 09:31:05;;;;;;;4.53;4.37;;;;;;;1.28;96.49;92375.03;5036094;28;20202;-72
2022/01/21 09:33:32;;;;;;;2.20;1.73;;;;;;;1.31;97.43;92362.53;5034891;28;20197;-72
2022/01/21 09:35:59;;;;;;;3.93;3.80;;;;;;;1.40;97.48;92359.97;5035321;28;20278;-73
2022/01/21 09:38:27;;;;;;;5.83;5.37;;;;;;;1.44;97.41;92361.56;5034303;28;20486;-71
2022/01/21 09:40:54;;;;;;;6.90;6.27;;;;;;;1.36;95.91;92390.69;5034450;28;20485;-70
2022/01/21 09:43:24;;;;;;;13.00;11.50;;;;;;;1.30;95.79;92390.75;5036035;28;20222;-71
2022/01/21 09:45:54;;;;;;;10.43;7.43;;;;;;;1.11;95.88;92371.94;5036103;28;20491;-71
2022/01/21 09:48:24;;;;;;;2.90;2.63;;;;;;;1.08;95.76;92379.41;5035614;28;20557;-71
2022/01/21 09:50:54;;;;;;;4.47;4.13;;;;;;;1.01;96.48;92368.72;5031656;28;20205;-71
2022/01/21 09:53:27;;;;;;;6.87;6.47;;;;;;;1.08;96.88;92379.41;5032242;28;20475;-71
2022/01/21 09:55:56;;;;;;;2.03;2.03;;;;;;;0.95;96.99;92363.81;5033899;28;20447;-71
2022/01/21 09:58:26;;;;;;;2.20;2.07;;;;;;;1.06;97.69;92371.97;5032397;28;20472;-71
2022/01/21 10:00:53;;;;;;;1.87;1.70;;;;;;;0.93;98.04;92349.75;5031430;28;20297;-70
2022/01/21 10:03:22;;;;;;;3.60;3.40;;;;;;;1.06;98.24;92354.56;5032843;28;20299;-71
2022/01/21 10:05:51;;;;;;;5.67;5.27;;;;;;;1.11;96.07;92371.94;5030595;28;20670;-71
2022/01/21 10:08:21;;;;;;;3.33;3.10;;;;;;;1.09;95.68;92371.09;5032136;28;20547;-71
2022/01/21 10:10:49;;;;;;;3.13;3.03;;;;;;;1.05;94.79;92384.44;5033106;28;20351;-72
2022/01/21 10:13:19;;;;;;;4.40;4.23;;;;;;;0.92;94.04;92380.41;5032770;28;20597;-71
2022/01/21 10:15:48;;;;;;;6.97;6.53;;;;;;;0.91;95.03;92378.75;5030936;28;20524;-72
2022/01/21 10:18:17;;;;;;;7.93;6.83;;;;;;;0.92;95.39;92380.41;5032413;28;20473;-72
2022/01/21 10:21:07;;;;;;;4.17;3.77;;;;;;;0.87;95.08;92374.66;5032045;28;20552;-72
2022/01/21 10:23:37;;;;;;;3.57;3.47;;;;;;;0.86;95.15;92375.50;5028735;28;20207;-72
2022/01/21 10:26:06;;;;;;;1.63;1.63;;;;;;;0.81;94.69;92368.94;5032591;28;20605;-71
2022/01/21 10:28:35;;;;;;;6.67;5.33;;;;;;;0.81;94.71;92358.97;5033611;28;20582;-71
2022/01/21 10:31:10;;;;;;;31.67;17.37;;;;;;;0.84;95.16;92363.13;5032938;28;20234;-72
2022/01/21 10:33:40;;;;;;;12.03;7.00;;;;;;;0.81;94.07;92371.41;5031272;28;20233;-71
2022/01/21 10:36:10;;;;;;;13.20;11.10;;;;;;;0.81;95.68;92353.19;5032957;28;20620;-71
2022/01/21 10:38:44;;;;;;;104.93;45.40;;;;;;;0.86;94.83;92340.69;5033621;28;20565;-71
2022/01/21 10:41:13;;;;;;;3.47;3.27;;;;;;;0.72;94.89;92361.56;5033731;28;20202;-70
2022/01/21 10:43:40;;;;;;;3.60;3.30;;;;;;;0.58;94.00;92378.28;5034937;28;20579;-70
2022/01/21 10:46:14;;;;;;;1.77;1.67;;;;;;;0.60;93.67;92374.13;5033609;28;20526;-70
2022/01/21 10:48:59;;;;;;;1.90;1.80;;;;;;;0.53;94.02;92367.56;5023920;28;20533;-70
2022/01/21 10:51:28;;;;;;;1.77;1.77;;;;;;;0.54;94.42;92364.25;5023010;28;20539;-70
2022/01/21 10:53:57;;;;;;;3.07;2.20;;;;;;;0.46;93.98;92352.72;5018548;28;20654;-70
2022/01/21 10:56:25;;;;;;;1.90;1.80;;;;;;;0.37;93.75;92348.66;5017554;28;20205;-70
2022/01/21 10:58:56;;;;;;;1.60;1.60;;;;;;;0.33;93.94;92344.56;5020168;28;20560;-70
2022/01/21 11:01:29;;;;;;;2.57;2.37;;;;;;;0.18;93.96;92318.19;5022869;28;20656;-71
2022/01/21 11:03:58;;;;;;;2.27;2.17;;;;;;;0.37;94.89;92342.03;5019477;28;20659;-71
2022/01/21 11:06:29;;;;;;;3.47;3.37;;;;;;;0.37;94.22;92347.00;5020516;28;20575;-71
2022/01/21 11:09:15;;;;;;;1.43;1.43;;;;;;;0.44;93.69;92352.75;5017240;28;20619;-71
2022/01/21 11:11:43;;;;;;;1.63;1.63;;;;;;;0.45;94.05;92338.66;5017403;28;20688;-71
2022/01/21 11:14:14;;;;;;;11.33;8.53;;;;;;;0.40;93.87;92331.22;5024585;28;20489;-71
2022/01/21 11:16:46;;;;;;;1.70;1.70;;;;;;;0.48;93.00;92333.66;5032074;28;20623;-71
2022/01/21 11:19:16;;;;;;;1.80;1.70;;;;;;;0.52;93.31;92341.06;5034819;28;20555;-71
2022/01/21 11:21:51;;;;;;;4.67;4.47;;;;;;;0.56;92.46;92369.22;5035003;28;20224;-70
2022/01/21 11:24:21;;;;;;;4.63;4.43;;;;;;;0.57;92.34;92369.16;5034727;28;20599;-71
2022/01/21 11:27:07;;;;;;;1.87;1.77;;;;;;;0.51;93.28;92348.53;5034777;28;20597;-70
2022/01/21 11:29:34;;;;;;;8.40;7.63;;;;;;;0.51;93.75;92328.66;5032337;28;20297;-72
2022/01/21 11:32:04;;;;;;;18.87;11.90;;;;;;;0.60;93.19;92329.38;5033413;28;20584;-73
2022/01/21 11:34:32;;;;;;;4.57;4.17;;;;;;;0.65;93.90;92317.72;5032259;28;20641;-72
2022/01/21 11:37:00;;;;;;;5.67;4.87;;;;;;;0.70;93.25;92323.47;5032901;28;20224;-72
2022/01/21 11:39:28;;;;;;;4.10;3.63;;;;;;;0.65;92.36;92339.28;5028443;28;20676;-73
2022/01/21 11:41:57;;;;;;;6.10;4.47;;;;;;;0.53;92.35;92320.34;5029104;28;20221;-72
2022/01/21 11:44:27;;;;;;;1.80;1.80;;;;;;;0.34;93.18;92313.91;5031781;28;20520;-72
2022/01/21 11:47:14;;;;;;;2.60;2.40;;;;;;;0.29;93.46;92318.09;5032948;28;20216;-72
2022/01/21 11:49:54;;;;;;;2.87;2.77;;;;;;;0.28;93.26;92314.78;5030565;28;20489;-72
2022/01/21 11:52:22;;;;;;;5.90;5.30;;;;;;;0.39;92.35;92335.38;5034573;28;20576;-72
2022/01/21 11:54:52;;;;;;;5.13;4.63;;;;;;;0.45;92.33;92327.06;5033986;28;20664;-72
2022/01/21 11:57:33;;;;;;;4.13;4.03;;;;;;;0.47;92.53;92325.38;5034824;28;20205;-72
2022/01/21 12:00:06;;;;;;;4.33;3.93;;;;;;;0.29;93.21;92315.59;5029852;28;20633;-72
2022/01/21 12:02:35;;;;;;;3.77;3.47;;;;;;;0.29;93.88;92295.72;5033780;28;20309;-72
2022/01/21 12:05:07;;;;;;;5.20;4.80;;;;;;;0.44;93.65;92313.00;5028089;28;20463;-72
2022/01/21 12:07:48;;;;;;;5.80;5.30;;;;;;;0.50;93.11;92302.16;5037855;28;20561;-71
2022/01/21 12:10:20;;;;;;;5.90;5.53;;;;;;;0.59;93.04;92312.00;5034624;28;20646;-71
2022/01/21 12:13:04;;;;;;;4.00;3.70;;;;;;;0.56;93.13;92319.50;5031667;28;20489;-72
2022/01/21 12:15:54;;;;;;;3.53;3.43;;;;;;;0.63;92.69;92311.13;5033051;28;20571;-72
2022/01/21 12:18:39;;;;;;;4.33;4.23;;;;;;;0.63;92.83;92277.16;5035065;28;20483;-73
2022/01/21 12:21:30;;;;;;;4.13;4.03;;;;;;;0.77;92.80;92285.28;5035009;28;20555;-73
2022/01/21 12:23:57;;;;;;;3.00;2.90;;;;;;;0.66;93.10;92299.50;5031681;28;20205;-73
2022/01/21 12:26:26;;;;;;;2.70;2.60;;;;;;;0.58;92.76;92308.69;5032188;28;20623;-73